Time;durP1;ratioP1;P1;durP2;ratioP2;P2;SDS_P1;SDS_P2;PMS_P1;PMS_P2;Temp;Humidity;BMP_temperature;BMP_pressure;BME280_temperature;BME280_humidity;BME280_pressure;Samples;Min_cycle;Max_cycle;Signal;HPM_P1;HPM_P2
2021/01/28 00:02:03;;;;;;;7.63;5.93;;;2.50;99.90;;;;;;6146621;23;20535;-88
2021/01/28 00:04:29;;;;;;;7.53;5.40;;;2.50;99.90;;;;;;6148077;23;20429;-90
2021/01/28 00:06:54;;;;;;;7.50;5.97;;;2.50;99.90;;;;;;6147638;23;20167;-86
2021/01/28 00:09:20;;;;;;;5.70;5.10;;;2.50;99.90;;;;;;6147200;23;20168;-85
2021/01/28 00:11:46;;;;;;;6.40;4.90;;;2.50;99.90;;;;;;6146294;23;20251;-90
2021/01/28 00:14:11;;;;;;;6.17;5.40;;;2.50;99.90;;;;;;6147556;23;20161;-88
2021/01/28 00:16:37;;;;;;;6.30;5.43;;;2.50;99.90;;;;;;6147989;23;20648;-90
2021/01/28 00:19:03;;;;;;;7.53;6.03;;;2.50;99.90;;;;;;6148111;23;20164;-91
2021/01/28 00:21:29;;;;;;;7.90;5.90;;;2.60;99.90;;;;;;6146406;23;20168;-89
2021/01/28 00:23:54;;;;;;;7.40;5.73;;;2.50;99.90;;;;;;6147241;23;20406;-88
2021/01/28 00:26:20;;;;;;;8.67;6.10;;;2.50;99.90;;;;;;6148913;23;20176;-88
2021/01/28 00:28:46;;;;;;;6.77;5.50;;;2.50;99.90;;;;;;6146559;23;20168;-87
2021/01/28 00:31:12;;;;;;;6.63;5.60;;;2.60;99.90;;;;;;6145868;23;20168;-89
2021/01/28 00:33:37;;;;;;;7.37;5.23;;;2.60;99.90;;;;;;6148859;23;20595;-88
2021/01/28 00:36:05;;;;;;;6.20;4.67;;;2.60;99.90;;;;;;6149306;23;20271;-88
2021/01/28 00:38:33;;;;;;;7.00;5.33;;;2.70;99.90;;;;;;6146970;23;20203;-88
2021/01/28 00:41:00;;;;;;;6.60;5.30;;;2.60;99.90;;;;;;6147754;23;20388;-89
2021/01/28 00:43:26;;;;;;;5.30;4.80;;;2.70;99.90;;;;;;6148118;23;20388;-87
2021/01/28 00:45:53;;;;;;;7.60;5.50;;;2.70;99.90;;;;;;6141811;23;20388;-88
2021/01/28 00:48:19;;;;;;;7.20;5.97;;;2.70;99.90;;;;;;6146889;23;20431;-89
2021/01/28 00:50:46;;;;;;;6.00;5.10;;;2.70;99.90;;;;;;6148711;23;20491;-88
2021/01/28 00:53:14;;;;;;;6.57;4.60;;;2.80;99.90;;;;;;6147887;23;20756;-88
2021/01/28 00:55:40;;;;;;;5.20;4.70;;;2.70;99.90;;;;;;6147784;23;20419;-88
2021/01/28 00:58:06;;;;;;;5.10;4.60;;;2.70;99.90;;;;;;6146373;23;20455;-89
2021/01/28 01:00:39;;;;;;;6.00;4.93;;;2.80;99.90;;;;;;6147693;23;20865;-90
2021/01/28 01:03:06;;;;;;;5.30;4.77;;;2.70;99.90;;;;;;6147685;23;20181;-89
2021/01/28 01:05:33;;;;;;;7.50;5.83;;;2.70;99.90;;;;;;6147914;23;20395;-89
2021/01/28 01:07:59;;;;;;;6.13;4.77;;;2.80;99.90;;;;;;6148250;23;20391;-89
2021/01/28 01:10:52;;;;;;;6.03;4.80;;;2.80;99.90;;;;;;6147098;23;20414;-89
2021/01/28 01:13:25;;;;;;;5.63;4.53;;;2.80;99.90;;;;;;6147950;23;20729;-90
2021/01/28 01:15:51;;;;;;;5.40;4.77;;;2.80;99.90;;;;;;6146276;23;20454;-89
2021/01/28 01:18:20;;;;;;;5.53;4.90;;;2.80;99.90;;;;;;6147422;23;20408;-88
2021/01/28 01:20:46;;;;;;;4.33;3.97;;;2.80;99.90;;;;;;6148689;23;20436;-89
2021/01/28 01:23:12;;;;;;;5.60;4.60;;;2.80;99.90;;;;;;6147164;23;20420;-88
2021/01/28 01:25:38;;;;;;;4.80;4.40;;;2.90;99.90;;;;;;6147433;23;20877;-88
2021/01/28 01:28:04;;;;;;;6.67;5.00;;;2.90;99.90;;;;;;6145254;23;20397;-88
2021/01/28 01:30:31;;;;;;;5.87;5.07;;;2.90;99.90;;;;;;6147903;23;20827;-88
2021/01/28 01:32:56;;;;;;;5.90;4.47;;;2.90;99.90;;;;;;6147399;23;20449;-89
2021/01/28 01:35:23;;;;;;;5.80;4.90;;;2.90;99.90;;;;;;6147124;23;20400;-88
2021/01/28 01:37:51;;;;;;;4.60;4.20;;;2.90;99.90;;;;;;6145900;23;20486;-88
2021/01/28 01:40:22;;;;;;;6.50;4.93;;;2.90;99.90;;;;;;6147354;23;20392;-88
2021/01/28 01:42:50;;;;;;;4.97;4.23;;;3.00;99.90;;;;;;6148305;23;20447;-88
2021/01/28 01:45:24;;;;;;;4.80;4.20;;;3.00;99.90;;;;;;6122666;23;20400;-90
2021/01/28 01:47:53;;;;;;;6.10;4.50;;;3.00;99.90;;;;;;6146905;23;20408;-90
2021/01/28 01:50:22;;;;;;;6.30;4.23;;;3.00;99.90;;;;;;6147955;23;20396;-90
2021/01/28 01:52:47;;;;;;;4.57;3.80;;;3.00;99.90;;;;;;6146388;23;20403;-89
2021/01/28 01:55:13;;;;;;;4.80;4.30;;;3.00;99.90;;;;;;6147806;23;20423;-89
2021/01/28 01:57:40;;;;;;;5.27;4.67;;;3.00;99.90;;;;;;6145245;23;20263;-88
2021/01/28 02:00:12;;;;;;;5.40;3.90;;;3.00;99.90;;;;;;6146445;23;20636;-88
2021/01/28 02:02:41;;;;;;;5.20;4.40;;;3.00;99.90;;;;;;6147714;23;20738;-88
2021/01/28 02:05:37;;;;;;;4.97;3.70;;;3.10;99.90;;;;;;6143966;23;20396;-89
2021/01/28 02:08:04;;;;;;;4.50;4.10;;;3.10;99.90;;;;;;6131082;23;20399;-88
2021/01/28 02:10:30;;;;;;;4.53;4.13;;;3.00;99.90;;;;;;6147056;23;20399;-88
2021/01/28 02:12:59;;;;;;;4.60;3.70;;;3.10;99.90;;;;;;6147898;23;20492;-89
2021/01/28 02:15:25;;;;;;;5.00;4.17;;;3.10;99.90;;;;;;6146364;23;20475;-88
2021/01/28 02:17:54;;;;;;;5.70;4.53;;;3.10;99.90;;;;;;6147473;23;20490;-88
2021/01/28 02:20:55;;;;;;;5.17;4.67;;;3.10;99.90;;;;;;6146529;23;20475;-89
2021/01/28 02:23:39;;;;;;;5.33;4.33;;;3.10;99.90;;;;;;6147102;23;20395;-88
2021/01/28 02:26:06;;;;;;;4.90;4.20;;;3.10;99.90;;;;;;6148613;23;20717;-87
2021/01/28 02:28:32;;;;;;;5.43;4.70;;;3.10;99.90;;;;;;6147255;23;20796;-88
2021/01/28 02:30:59;;;;;;;4.80;3.70;;;3.10;99.90;;;;;;6148755;23;20419;-87
2021/01/28 02:33:43;;;;;;;4.80;4.13;;;3.20;99.90;;;;;;6148695;23;20404;-88
2021/01/28 02:36:09;;;;;;;4.40;4.00;;;3.10;99.90;;;;;;6148884;23;20425;-88
2021/01/28 02:38:35;;;;;;;4.97;3.90;;;3.20;99.90;;;;;;6149350;23;20404;-87
2021/01/28 02:41:02;;;;;;;5.70;4.17;;;3.20;99.90;;;;;;6148055;23;20706;-88
2021/01/28 02:43:28;;;;;;;4.37;3.97;;;3.10;99.90;;;;;;6148397;23;20393;-87
2021/01/28 02:46:04;;;;;;;5.93;4.20;;;3.20;99.90;;;;;;6148000;23;20716;-87
2021/01/28 02:48:30;;;;;;;5.70;4.60;;;3.10;99.90;;;;;;6149711;23;20397;-87
2021/01/28 02:50:56;;;;;;;6.20;5.03;;;3.10;99.90;;;;;;6148889;23;20968;-88
2021/01/28 02:53:22;;;;;;;5.27;4.50;;;3.10;99.90;;;;;;6147309;23;20165;-86
2021/01/28 02:55:48;;;;;;;4.90;4.13;;;3.10;99.90;;;;;;6149936;23;20191;-86
2021/01/28 02:58:13;;;;;;;4.40;4.00;;;3.10;99.90;;;;;;6149224;23;20225;-87
2021/01/28 03:00:39;;;;;;;5.10;4.23;;;3.10;99.90;;;;;;6149640;23;20408;-87
2021/01/28 03:03:09;;;;;;;5.20;4.70;;;3.10;99.90;;;;;;6148638;23;20167;-88
2021/01/28 03:05:35;;;;;;;5.20;4.40;;;3.20;99.90;;;;;;6149636;23;20165;-88
2021/01/28 03:08:00;;;;;;;7.40;5.30;;;3.10;99.90;;;;;;6147133;23;20576;-87
2021/01/28 03:10:26;;;;;;;5.17;4.67;;;3.10;99.90;;;;;;6149439;23;20616;-87
2021/01/28 03:12:52;;;;;;;5.23;4.63;;;3.10;99.90;;;;;;6149179;23;20166;-87
2021/01/28 03:15:20;;;;;;;5.57;4.97;;;3.10;99.90;;;;;;6149010;23;20887;-88
2021/01/28 03:17:46;;;;;;;5.83;4.87;;;3.10;99.90;;;;;;6149808;23;20193;-88
2021/01/28 03:20:13;;;;;;;6.37;5.00;;;3.20;99.90;;;;;;6146503;23;20407;-87
2021/01/28 03:22:39;;;;;;;6.37;5.10;;;3.10;99.90;;;;;;6148840;23;20197;-88
2021/01/28 03:25:07;;;;;;;7.50;5.23;;;3.10;99.90;;;;;;6147666;23;20392;-88
2021/01/28 03:27:33;;;;;;;5.43;4.57;;;3.10;99.90;;;;;;6147423;23;20442;-87
2021/01/28 03:29:59;;;;;;;6.83;4.97;;;3.20;99.90;;;;;;6148453;23;20761;-87
2021/01/28 03:32:25;;;;;;;5.67;4.73;;;3.10;99.90;;;;;;6148227;23;20476;-86
2021/01/28 03:34:50;;;;;;;5.90;5.10;;;3.10;99.90;;;;;;6149695;23;20495;-87
2021/01/28 03:37:17;;;;;;;5.20;4.40;;;3.10;99.90;;;;;;6146356;23;20192;-88
2021/01/28 03:39:42;;;;;;;5.10;4.60;;;3.10;99.90;;;;;;6149470;23;20560;-88
2021/01/28 03:42:08;;;;;;;7.20;5.03;;;3.20;99.90;;;;;;6147893;23;20720;-87
2021/01/28 03:44:34;;;;;;;5.13;4.63;;;3.20;99.90;;;;;;6149098;23;20189;-87
2021/01/28 03:46:59;;;;;;;5.97;4.90;;;3.20;99.90;;;;;;6147013;23;20593;-87
2021/01/28 03:49:25;;;;;;;4.93;4.43;;;3.20;99.90;;;;;;6149594;23;20163;-88
2021/01/28 03:51:51;;;;;;;7.17;4.83;;;3.20;99.90;;;;;;6146472;23;20511;-87
2021/01/28 03:54:16;;;;;;;4.87;4.10;;;3.30;99.90;;;;;;6147822;23;20500;-88
2021/01/28 03:56:42;;;;;;;6.53;5.23;;;3.30;99.90;;;;;;6148455;23;20640;-87
2021/01/28 03:59:08;;;;;;;6.33;5.00;;;3.30;99.90;;;;;;6146997;23;20166;-87
2021/01/28 04:01:34;;;;;;;5.50;4.83;;;3.30;99.90;;;;;;6147498;23;20666;-87
2021/01/28 04:03:59;;;;;;;4.97;4.40;;;3.30;99.90;;;;;;6146832;23;20190;-88
2021/01/28 04:06:25;;;;;;;5.93;4.80;;;3.20;99.90;;;;;;6148774;23;20404;-87
2021/01/28 04:08:51;;;;;;;5.40;4.37;;;3.30;99.90;;;;;;6148378;23;20665;-88
2021/01/28 04:11:16;;;;;;;5.90;4.50;;;3.30;99.90;;;;;;6147914;23;20172;-87
2021/01/28 04:13:42;;;;;;;5.63;5.00;;;3.30;99.90;;;;;;6148195;23;20172;-88
2021/01/28 04:16:08;;;;;;;4.73;4.27;;;3.30;99.90;;;;;;6147796;23;20476;-88
2021/01/28 04:18:33;;;;;;;5.33;4.30;;;3.30;99.90;;;;;;6147720;23;20176;-88
2021/01/28 04:20:59;;;;;;;6.47;4.33;;;3.40;99.90;;;;;;6122762;23;20628;-88
2021/01/28 04:23:25;;;;;;;9.10;5.93;;;3.30;99.90;;;;;;6147288;23;20168;-88
2021/01/28 04:25:51;;;;;;;9.30;6.77;;;3.40;99.90;;;;;;6148678;23;20188;-88
2021/01/28 04:28:16;;;;;;;9.70;7.10;;;3.40;99.90;;;;;;6147868;23;20171;-89
2021/01/28 04:30:42;;;;;;;5.60;5.00;;;3.40;99.90;;;;;;6146450;23;20179;-88
2021/01/28 04:33:09;;;;;;;6.87;5.60;;;3.40;99.90;;;;;;6145497;23;20165;-88
2021/01/28 04:35:34;;;;;;;6.97;5.13;;;3.40;99.90;;;;;;6148371;23;20611;-87
2021/01/28 04:38:01;;;;;;;5.90;4.87;;;3.30;99.90;;;;;;6146517;23;20531;-87
2021/01/28 04:40:28;;;;;;;4.80;4.30;;;3.40;99.90;;;;;;6148538;23;20194;-88
2021/01/28 04:42:56;;;;;;;5.43;4.20;;;3.30;99.90;;;;;;6146378;23;20442;-88
2021/01/28 04:45:24;;;;;;;5.00;4.50;;;3.30;99.90;;;;;;6146653;23;20395;-88
2021/01/28 04:47:57;;;;;;;6.00;5.17;;;3.30;99.90;;;;;;6146809;23;20398;-88
2021/01/28 04:50:32;;;;;;;5.13;4.63;;;3.30;99.90;;;;;;6146167;23;20400;-87
2021/01/28 04:53:02;;;;;;;6.27;5.10;;;3.20;99.90;;;;;;6146417;23;20737;-89
2021/01/28 04:55:38;;;;;;;6.40;5.80;;;3.30;99.90;;;;;;6148117;23;20412;-89
2021/01/28 04:58:04;;;;;;;6.10;5.37;;;3.20;99.90;;;;;;6147462;23;20449;-88
2021/01/28 05:00:30;;;;;;;6.87;5.90;;;3.20;99.90;;;;;;6147602;23;20386;-88
2021/01/28 05:03:21;;;;;;;7.20;5.53;;;3.20;99.90;;;;;;6147527;23;20404;-89
2021/01/28 05:05:50;;;;;;;7.10;6.23;;;3.20;99.90;;;;;;6147061;23;20392;-88
2021/01/28 05:08:16;;;;;;;6.53;5.90;;;3.20;99.90;;;;;;6147949;23;20408;-88
2021/01/28 05:10:45;;;;;;;6.53;5.40;;;3.20;99.90;;;;;;6146584;23;20474;-88
2021/01/28 05:13:23;;;;;;;8.17;6.27;;;3.20;99.90;;;;;;6146362;23;20168;-88
2021/01/28 05:15:49;;;;;;;7.27;6.10;;;3.20;99.90;;;;;;6146242;23;20402;-88
2021/01/28 05:18:33;;;;;;;7.93;5.77;;;3.10;99.90;;;;;;6146817;23;20774;-88
2021/01/28 05:21:19;;;;;;;7.20;6.37;;;3.10;99.90;;;;;;6146508;23;20169;-90
2021/01/28 05:23:46;;;;;;;8.40;6.20;;;3.10;99.90;;;;;;6146405;23;20391;-87
2021/01/28 05:26:33;;;;;;;8.80;6.30;;;3.20;99.90;;;;;;6146946;23;20893;-89
2021/01/28 05:29:28;;;;;;;6.80;5.60;;;3.10;99.90;;;;;;6145676;23;20392;-88
2021/01/28 05:31:59;;;;;;;8.40;6.03;;;3.10;99.90;;;;;;6146720;23;20397;-88
2021/01/28 05:34:26;;;;;;;7.27;6.57;;;3.10;99.90;;;;;;6146869;23;20418;-87
2021/01/28 05:37:01;;;;;;;7.40;6.63;;;3.10;99.90;;;;;;6146919;23;20467;-88
2021/01/28 05:39:39;;;;;;;10.43;5.63;;;3.20;99.90;;;;;;6146585;23;20715;-88
2021/01/28 05:42:14;;;;;;;8.50;6.67;;;3.20;99.90;;;;;;6146252;23;20399;-87
2021/01/28 05:44:40;;;;;;;12.20;9.50;;;3.20;99.90;;;;;;6147233;23;20401;-88
2021/01/28 05:47:18;;;;;;;8.20;6.43;;;3.20;99.90;;;;;;6147339;23;20767;-87
2021/01/28 05:49:45;;;;;;;10.23;6.73;;;3.30;99.90;;;;;;6148307;23;20490;-87
2021/01/28 05:52:27;;;;;;;6.77;5.37;;;3.30;99.90;;;;;;6145768;23;20471;-87
2021/01/28 05:55:05;;;;;;;8.90;8.00;;;3.40;99.90;;;;;;6145967;23;20418;-87
2021/01/28 05:57:51;;;;;;;8.00;5.80;;;3.30;99.90;;;;;;6147529;23;20711;-87
2021/01/28 06:00:50;;;;;;;10.67;7.20;;;3.30;99.90;;;;;;6149440;23;20449;-87
2021/01/28 06:03:44;;;;;;;8.80;7.03;;;3.30;99.90;;;;;;6147657;23;20401;-87
2021/01/28 06:06:33;;;;;;;7.43;6.17;;;3.20;99.90;;;;;;6149103;23;20395;-88
2021/01/28 06:09:19;;;;;;;10.80;7.50;;;3.20;99.90;;;;;;6130928;23;20823;-88
2021/01/28 06:12:02;;;;;;;13.83;7.67;;;3.10;99.90;;;;;;6148178;23;20403;-88
2021/01/28 06:14:33;;;;;;;8.90;6.53;;;3.20;99.90;;;;;;6147059;23;20416;-85
2021/01/28 06:17:28;;;;;;;11.17;8.00;;;3.20;99.90;;;;;;6147563;23;20451;-85
2021/01/28 06:20:21;;;;;;;9.60;7.07;;;3.20;99.90;;;;;;6150180;23;20492;-85
2021/01/28 06:23:24;;;;;;;9.53;7.10;;;3.20;99.90;;;;;;6154916;23;20420;-86
2021/01/28 06:26:23;;;;;;;9.77;7.10;;;3.20;99.90;;;;;;6148950;23;20412;-87
2021/01/28 06:29:13;;;;;;;10.67;7.47;;;3.20;99.90;;;;;;6150907;23;20401;-86
2021/01/28 06:32:03;;;;;;;9.90;7.50;;;3.20;99.90;;;;;;6150045;23;20748;-86
2021/01/28 06:35:20;;;;;;;11.47;7.37;;;3.10;99.90;;;;;;6150152;23;20468;-86
2021/01/28 06:38:19;;;;;;;9.90;7.60;;;3.10;99.90;;;;;;6085863;23;20448;-87
2021/01/28 06:40:53;;;;;;;13.07;7.50;;;3.10;99.90;;;;;;6150608;23;20400;-88
2021/01/28 06:43:44;;;;;;;9.47;6.73;;;3.20;99.90;;;;;;6177569;23;20840;-86
2021/01/28 06:46:42;;;;;;;11.97;9.23;;;3.10;99.90;;;;;;6151270;23;20393;-87
2021/01/28 06:49:42;;;;;;;8.67;6.10;;;3.10;99.90;;;;;;6150399;23;20396;-86
2021/01/28 06:52:43;;;;;;;8.87;6.60;;;3.20;99.90;;;;;;6140918;23;20712;-85
2021/01/28 06:55:09;;;;;;;8.07;6.57;;;3.20;99.90;;;;;;6150015;23;20411;-85
2021/01/28 06:57:48;;;;;;;10.13;7.20;;;3.20;99.90;;;;;;6148917;23;20532;-85
2021/01/28 07:00:33;;;;;;;12.00;7.80;;;3.20;99.90;;;;;;6149106;23;20160;-86
2021/01/28 07:03:46;;;;;;;12.10;6.93;;;3.20;99.90;;;;;;6149394;23;20398;-88
2021/01/28 07:06:42;;;;;;;10.97;8.70;;;3.30;99.90;;;;;;6173212;23;20785;-86
2021/01/28 07:09:27;;;;;;;10.60;8.60;;;3.30;99.90;;;;;;6149137;23;21213;-87
2021/01/28 07:11:58;;;;;;;12.63;11.13;;;3.30;99.90;;;;;;6174894;23;20400;-87
2021/01/28 07:14:24;;;;;;;11.53;8.60;;;3.30;99.90;;;;;;6149657;23;20396;-85
2021/01/28 07:17:22;;;;;;;14.20;9.83;;;3.30;99.90;;;;;;6148810;23;20859;-84
2021/01/28 07:19:55;;;;;;;10.20;8.93;;;3.20;99.90;;;;;;6143416;23;20540;-85
2021/01/28 07:22:33;;;;;;;9.70;8.70;;;3.20;99.90;;;;;;6177498;23;20395;-85
2021/01/28 07:25:31;;;;;;;11.70;9.13;;;3.20;99.90;;;;;;6175002;23;20383;-84
2021/01/28 07:28:22;;;;;;;12.07;8.90;;;3.20;99.90;;;;;;6149054;23;20794;-84
2021/01/28 07:30:50;;;;;;;13.93;10.53;;;3.20;99.90;;;;;;6149011;23;20411;-84
2021/01/28 07:33:25;;;;;;;12.40;9.10;;;3.20;99.90;;;;;;6150589;23;20498;-85
2021/01/28 07:35:56;;;;;;;46.27;38.33;;;3.20;99.90;;;;;;6149065;23;20404;-86
2021/01/28 07:38:28;;;;;;;14.83;9.30;;;3.20;99.90;;;;;;6149694;23;20443;-86
2021/01/28 07:40:56;;;;;;;30.50;26.07;;;3.20;99.90;;;;;;6148657;23;20400;-85
2021/01/28 07:43:26;;;;;;;81.90;72.10;;;3.30;99.90;;;;;;6149768;23;20482;-86
2021/01/28 07:46:23;;;;;;;12.87;9.20;;;3.20;99.90;;;;;;6150095;23;20395;-86
2021/01/28 07:49:17;;;;;;;9.40;7.67;;;3.30;99.90;;;;;;6147730;23;20760;-87
2021/01/28 07:51:58;;;;;;;8.27;6.90;;;3.30;99.90;;;;;;6148678;23;20425;-86
2021/01/28 07:54:29;;;;;;;11.63;7.23;;;3.40;99.90;;;;;;6148214;23;20418;-86
2021/01/28 07:56:59;;;;;;;11.70;8.17;;;3.40;99.90;;;;;;6149060;23;20535;-86
2021/01/28 07:59:34;;;;;;;9.40;6.97;;;3.40;99.90;;;;;;6150468;23;20407;-86
2021/01/28 08:02:17;;;;;;;9.33;7.33;;;3.50;99.90;;;;;;6148637;23;20410;-86
2021/01/28 08:04:50;;;;;;;12.23;8.23;;;3.50;99.90;;;;;;6149038;23;20780;-86
2021/01/28 08:07:40;;;;;;;10.47;8.17;;;3.40;99.90;;;;;;6149052;23;20745;-84
2021/01/28 08:10:19;;;;;;;9.27;7.33;;;3.50;99.90;;;;;;6149282;23;20707;-84
2021/01/28 08:12:55;;;;;;;13.57;9.30;;;3.40;99.90;;;;;;6150114;23;20483;-85
2021/01/28 08:15:50;;;;;;;13.50;10.40;;;3.40;99.90;;;;;;6150285;23;20399;-85
2021/01/28 08:18:31;;;;;;;11.63;8.40;;;3.40;99.90;;;;;;6150680;23;20445;-85
2021/01/28 08:21:13;;;;;;;10.20;7.13;;;3.40;99.90;;;;;;6149615;23;20775;-86
2021/01/28 08:23:42;;;;;;;10.90;8.50;;;3.50;99.90;;;;;;6150239;23;21195;-85
2021/01/28 08:26:28;;;;;;;12.00;8.60;;;3.50;99.90;;;;;;6148503;23;20399;-84
2021/01/28 08:29:14;;;;;;;10.60;6.93;;;3.50;99.90;;;;;;6149989;23;20731;-84
2021/01/28 08:31:52;;;;;;;9.00;7.53;;;3.50;99.90;;;;;;6150261;23;21073;-82
2021/01/28 08:34:23;;;;;;;9.87;7.63;;;3.60;99.90;;;;;;6148622;23;20400;-85
2021/01/28 08:36:57;;;;;;;9.50;7.10;;;3.70;99.90;;;;;;6150736;23;20444;-86
2021/01/28 08:39:32;;;;;;;8.37;6.70;;;3.70;99.90;;;;;;6148567;23;20395;-86
2021/01/28 08:42:25;;;;;;;7.53;6.07;;;3.80;99.90;;;;;;6148526;23;20441;-89
2021/01/28 08:45:08;;;;;;;7.20;6.00;;;3.90;99.90;;;;;;6137613;23;20410;-92
2021/01/28 08:47:34;;;;;;;7.40;6.53;;;4.10;99.90;;;;;;6152111;23;20434;-85
2021/01/28 08:50:02;;;;;;;9.13;7.17;;;4.10;99.90;;;;;;6149950;23;20395;-90
2021/01/28 08:52:29;;;;;;;10.57;8.03;;;4.00;99.90;;;;;;6151434;23;20184;-89
2021/01/28 08:54:55;;;;;;;12.17;9.10;;;3.90;99.90;;;;;;6174694;23;20491;-91
2021/01/28 08:57:25;;;;;;;9.57;8.37;;;3.90;99.90;;;;;;6149461;23;20475;-92
2021/01/28 08:59:59;;;;;;;11.10;8.30;;;3.90;99.90;;;;;;6150056;23;20403;-90
2021/01/28 09:05:53;;;;;;;9.20;7.30;;;4.00;99.90;;;;;;6175713;23;20411;-91
2021/01/28 09:08:32;;;;;;;8.47;7.20;;;4.10;99.90;;;;;;6149742;23;20395;-91
2021/01/28 09:11:09;;;;;;;7.07;6.37;;;4.10;99.90;;;;;;6149003;23;20794;-90
2021/01/28 09:13:36;;;;;;;8.90;6.80;;;4.10;99.90;;;;;;6148763;23;20854;-90
2021/01/28 09:16:18;;;;;;;9.37;6.50;;;4.10;99.90;;;;;;6175643;23;20714;-90
2021/01/28 09:18:45;;;;;;;9.23;6.50;;;4.10;99.90;;;;;;6149629;23;20407;-89
2021/01/28 09:21:22;;;;;;;6.83;5.47;;;4.10;99.90;;;;;;6148450;23;20702;-89
2021/01/28 09:24:05;;;;;;;7.00;6.07;;;4.10;99.90;;;;;;6149231;23;20434;-89
2021/01/28 09:26:35;;;;;;;6.17;5.57;;;4.20;99.90;;;;;;6149718;23;20387;-89
2021/01/28 09:29:20;;;;;;;6.30;5.20;;;4.20;99.90;;;;;;6151037;23;20738;-89
2021/01/28 09:31:49;;;;;;;5.33;4.83;;;4.30;99.90;;;;;;6149403;23;20395;-89
2021/01/28 09:34:35;;;;;;;6.10;5.37;;;4.30;99.90;;;;;;6149906;23;20388;-90
2021/01/28 09:37:12;;;;;;;5.60;4.60;;;4.30;99.90;;;;;;6150020;23;20501;-89
2021/01/28 09:39:53;;;;;;;5.87;4.77;;;4.40;99.90;;;;;;6145666;23;20497;-89
2021/01/28 09:42:30;;;;;;;8.00;5.10;;;4.40;99.90;;;;;;6150382;23;20931;-89
2021/01/28 09:45:08;;;;;;;5.80;5.20;;;4.50;99.90;;;;;;6150912;23;20398;-90
2021/01/28 09:47:37;;;;;;;5.70;4.77;;;4.50;99.90;;;;;;6149406;23;20490;-88
2021/01/28 09:50:10;;;;;;;7.33;4.90;;;4.50;99.90;;;;;;6127271;23;20726;-89
2021/01/28 09:52:40;;;;;;;6.27;5.67;;;4.50;99.90;;;;;;6149835;23;20738;-89
2021/01/28 09:55:07;;;;;;;7.70;6.40;;;4.40;99.90;;;;;;6148763;23;20760;-89
2021/01/28 09:57:33;;;;;;;8.53;6.70;;;4.30;99.90;;;;;;6150173;23;20449;-88
2021/01/28 10:00:00;;;;;;;5.40;4.83;;;4.30;99.90;;;;;;6177425;23;20388;-88
2021/01/28 10:02:55;;;;;;;8.70;7.10;;;4.30;99.90;;;;;;6149301;23;20784;-89
2021/01/28 10:05:25;;;;;;;8.03;7.23;;;4.40;99.90;;;;;;6176448;23;20388;-89
2021/01/28 10:08:15;;;;;;;12.20;8.23;;;4.40;99.90;;;;;;6150026;23;20403;-87
2021/01/28 10:10:40;;;;;;;10.73;9.63;;;4.50;99.90;;;;;;6175792;23;20398;-88
2021/01/28 10:13:13;;;;;;;9.47;8.40;;;4.40;99.90;;;;;;6148955;23;20736;-89
2021/01/28 10:15:39;;;;;;;9.17;7.47;;;4.40;99.90;;;;;;6148720;23;20161;-89
2021/01/28 10:18:06;;;;;;;8.10;7.30;;;4.40;99.90;;;;;;6176154;23;20466;-89
2021/01/28 10:20:33;;;;;;;7.27;6.57;;;4.50;99.90;;;;;;6150171;23;20393;-89
2021/01/28 10:23:02;;;;;;;6.40;5.80;;;4.40;99.90;;;;;;6150109;23;20165;-89
2021/01/28 10:25:29;;;;;;;6.43;5.47;;;4.40;99.90;;;;;;6149477;23;20403;-89
2021/01/28 10:27:56;;;;;;;5.10;4.37;;;4.50;99.90;;;;;;6149735;23;20399;-89
2021/01/28 10:30:25;;;;;;;5.00;4.40;;;4.60;99.90;;;;;;6149268;23;20400;-89
2021/01/28 10:32:52;;;;;;;6.70;4.60;;;4.70;99.90;;;;;;6146446;23;20396;-88
2021/01/28 10:35:30;;;;;;;5.70;5.10;;;4.70;99.90;;;;;;6173165;23;20888;-88
2021/01/28 10:37:57;;;;;;;5.30;4.80;;;4.70;99.90;;;;;;6147910;23;20469;-88
2021/01/28 10:40:25;;;;;;;4.20;3.57;;;4.70;99.90;;;;;;6148973;23;20399;-88
2021/01/28 10:43:00;;;;;;;4.83;3.70;;;4.80;99.90;;;;;;6148288;23;20907;-88
2021/01/28 10:45:33;;;;;;;3.37;3.07;;;4.90;99.90;;;;;;6150325;23;20443;-88
2021/01/28 10:48:00;;;;;;;2.60;2.40;;;5.00;99.90;;;;;;6169284;23;20933;-88
2021/01/28 10:50:32;;;;;;;3.50;3.20;;;5.10;99.90;;;;;;6142500;23;20486;-90
2021/01/28 10:52:58;;;;;;;5.73;5.03;;;5.10;99.90;;;;;;6144224;23;20437;-88
2021/01/28 10:55:26;;;;;;;3.33;3.03;;;5.20;99.90;;;;;;6145763;23;20478;-95
2021/01/28 10:58:15;;;;;;;3.40;2.43;;;5.30;99.90;;;;;;6133093;23;20488;-96
2021/01/28 11:00:40;;;;;;;3.97;2.13;;;6.00;99.90;;;;;;6116589;23;20402;-88
2021/01/28 11:03:08;;;;;;;2.77;2.20;;;5.90;99.90;;;;;;6140788;23;20446;-86
2021/01/28 11:05:36;;;;;;;2.80;2.60;;;5.70;99.90;;;;;;6113825;23;20408;-88
2021/01/28 11:08:04;;;;;;;2.47;2.27;;;5.50;99.90;;;;;;6113471;23;20488;-85
2021/01/28 11:10:30;;;;;;;2.30;2.10;;;5.50;99.90;;;;;;6137673;23;20401;-87
2021/01/28 11:12:58;;;;;;;2.50;2.07;;;5.70;99.90;;;;;;6113183;23;20413;-87
2021/01/28 11:15:27;;;;;;;1.80;1.70;;;5.70;99.90;;;;;;6114459;23;20398;-87
2021/01/28 11:17:53;;;;;;;2.40;1.87;;;5.70;99.90;;;;;;6115929;23;20445;-87
2021/01/28 11:20:19;;;;;;;2.67;1.30;;;5.80;99.90;;;;;;6115217;23;20483;-88
2021/01/28 11:22:46;;;;;;;1.50;1.40;;;5.80;99.90;;;;;;6114726;23;20178;-88
2021/01/28 11:25:15;;;;;;;2.57;1.60;;;5.80;99.90;;;;;;6115553;23;20399;-88
2021/01/28 11:27:41;;;;;;;1.83;1.43;;;5.90;99.90;;;;;;6163600;23;20410;-88
2021/01/28 11:30:09;;;;;;;2.10;1.47;;;5.90;99.90;;;;;;6113306;23;20617;-87
2021/01/28 11:32:35;;;;;;;1.90;1.70;;;5.80;99.90;;;;;;6114289;23;20495;-88
2021/01/28 11:35:01;;;;;;;2.13;1.93;;;5.80;99.90;;;;;;6114790;23;20402;-88
2021/01/28 11:37:26;;;;;;;2.43;1.90;;;5.80;99.90;;;;;;6114078;23;20200;-88
2021/01/28 11:39:56;;;;;;;1.77;1.67;;;5.80;99.90;;;;;;6113895;23;20645;-88
2021/01/28 11:42:21;;;;;;;1.70;1.57;;;5.80;99.90;;;;;;6114579;23;20169;-89
2021/01/28 11:44:47;;;;;;;3.60;2.50;;;5.90;99.90;;;;;;6113755;23;20404;-87
2021/01/28 11:47:13;;;;;;;2.37;2.17;;;6.10;99.90;;;;;;6114830;23;20443;-86
2021/01/28 11:49:38;;;;;;;3.23;2.93;;;6.30;99.90;;;;;;6114349;23;20166;-88
2021/01/28 11:52:04;;;;;;;8.20;5.97;;;6.50;99.90;;;;;;6114469;23;20191;-87
2021/01/28 11:54:31;;;;;;;3.10;2.00;;;6.50;99.90;;;;;;6113792;23;20619;-87
2021/01/28 11:56:57;;;;;;;3.50;3.20;;;6.50;99.90;;;;;;6113008;23;20499;-85
2021/01/28 11:59:22;;;;;;;7.17;4.00;;;6.50;99.90;;;;;;6114271;23;20442;-87
2021/01/28 12:01:48;;;;;;;2.63;2.20;;;6.50;99.90;;;;;;6113064;23;20168;-87
2021/01/28 12:04:14;;;;;;;1.90;1.70;;;6.60;99.90;;;;;;6114117;23;20176;-88
2021/01/28 12:06:41;;;;;;;3.50;2.77;;;6.50;99.90;;;;;;6114320;23;20176;-91
2021/01/28 12:09:07;;;;;;;2.87;2.60;;;6.50;99.90;;;;;;6104002;23;20536;-89
2021/01/28 12:11:32;;;;;;;3.23;2.93;;;6.50;99.90;;;;;;6160578;23;20498;-88
2021/01/28 12:14:17;;;;;;;2.57;2.37;;;6.60;99.90;;;;;;6113059;23;20426;-89
2021/01/28 12:16:43;;;;;;;4.60;2.30;;;6.70;99.90;;;;;;6112392;23;20533;-89
2021/01/28 12:19:10;;;;;;;3.37;1.63;;;6.90;99.90;;;;;;6089647;23;20402;-89
2021/01/28 12:21:36;;;;;;;2.33;2.07;;;6.90;99.90;;;;;;6113187;23;20247;-88
2021/01/28 12:24:02;;;;;;;2.50;2.20;;;6.90;99.90;;;;;;6111836;23;20429;-88
2021/01/28 12:26:28;;;;;;;2.10;1.73;;;7.00;99.90;;;;;;6112140;23;20806;-88
2021/01/28 12:28:54;;;;;;;2.40;1.50;;;7.10;99.90;;;;;;6112736;23;20176;-87
2021/01/28 12:31:19;;;;;;;1.50;1.40;;;7.20;99.90;;;;;;6112638;23;20175;-87
2021/01/28 12:33:45;;;;;;;1.93;1.73;;;7.20;99.90;;;;;;6112289;23;20195;-91
2021/01/28 12:36:11;;;;;;;1.80;1.70;;;7.30;99.90;;;;;;6112128;23;20479;-92
2021/01/28 12:38:38;;;;;;;1.80;1.70;;;7.30;99.90;;;;;;6114270;23;20845;-91
2021/01/28 12:41:04;;;;;;;1.97;1.43;;;7.40;99.90;;;;;;6089508;23;20619;-90
2021/01/28 12:43:29;;;;;;;1.53;1.33;;;7.50;99.90;;;;;;6113483;23;20482;-91
2021/01/28 12:45:57;;;;;;;2.43;1.40;;;7.60;99.90;;;;;;6139297;23;20465;-85
2021/01/28 12:48:23;;;;;;;1.33;1.23;;;7.60;99.90;;;;;;6112917;23;20428;-87
2021/01/28 12:50:49;;;;;;;4.10;1.43;;;7.70;99.90;;;;;;6109806;23;20406;-86
2021/01/28 12:53:15;;;;;;;1.60;1.30;;;7.80;99.90;;;;;;6107830;23;20503;-87
2021/01/28 12:55:41;;;;;;;1.63;1.50;;;8.00;99.90;;;;;;6111699;23;20263;-87
2021/01/28 12:58:07;;;;;;;1.67;1.57;;;8.10;99.90;;;;;;6111510;23;20556;-86
2021/01/28 13:00:32;;;;;;;2.20;1.90;;;8.30;99.90;;;;;;6110871;23;20475;-86
2021/01/28 13:02:58;;;;;;;1.70;1.60;;;8.50;99.90;;;;;;6112113;23;20945;-87
2021/01/28 13:05:24;;;;;;;1.13;1.10;;;8.70;99.90;;;;;;6112604;23;20172;-86
2021/01/28 13:07:50;;;;;;;1.53;1.30;;;9.20;99.90;;;;;;6112140;23;20247;-84
2021/01/28 13:10:16;;;;;;;1.87;1.17;;;9.20;99.90;;;;;;6110687;23;20196;-86
2021/01/28 13:12:42;;;;;;;0.90;0.90;;;9.40;99.90;;;;;;6112347;23;20227;-86
2021/01/28 13:15:12;;;;;;;0.90;0.87;;;9.40;99.90;;;;;;6111691;23;20400;-85
2021/01/28 13:17:37;;;;;;;1.50;0.87;;;9.20;99.90;;;;;;6111329;23;20803;-85
2021/01/28 13:20:05;;;;;;;0.70;0.70;;;9.10;99.90;;;;;;6110311;23;20691;-86
2021/01/28 13:22:31;;;;;;;1.60;0.50;;;9.00;99.90;;;;;;6111966;23;20191;-89
2021/01/28 13:24:56;;;;;;;2.17;1.10;;;9.00;99.90;;;;;;6112325;23;20393;-86